aviador You're here:

PFYU Decoded Metar

FORT YUKON in AK, USA
Report Time2018-04-26 12:56:00
UTC Time2018-04-26 13:23:32
Flight Rules vfr VFR
WindCalm
Visibility9999 m
Phenomena:N/A
Clouds:Broken 075 Hf
Ceiling7,500 ft
Temp-3°C (ISA -15)
Dew Point-3°C (100% RH)
AAT-5.4°C
QNH1015 hPa
Density Alt-443 ft
Elevation1,414 ft
Report Wrong Elevation
Raw Report
PFYU 261256Z AUTO 00000KT 10SM BKN075 M03/M03 A2997=

Extra information for PFYU:More info

Metar Taf Metar & Taf Last 4 Metars F.Rules Stats Wind Profile Meteogram Temp Stats Airport Information Weather charts Add Link Nearby VenuesMetar ALERT Operation Metar Decoded Social comments

AIRNAV info for PFYU